Current Conditions
Clear
Conditions



Pressure
1027.92 (hPa) - 30.35 (inHG)
Visibility

10.0 (km) - 6.2 (miles)
   Temperature
17  °C
63°F
11  °C
Dewpoint
68  %
 Humidity
   Wind Speed
3.1  m/s
7  mph
11  km/h
6  kts
   Wind Direction
 270°
Due West
   Airport Data
EKRN
Location Bornholm 15 km (9.32 mi)
Metar :EKRN 212250Z AUTO 27006KT 9999 NCD 17/11 Q1028
Thu 22nd August 00:50 am
   Raw Metar Info
Raw METAR is the most common format in the world for the transmission of observational weather data. It is highly standardized through the International Civil Aviation Organization (ICAO), which allows it to be understood throughout most of the world.
   API Info
Data Provided by
https://www.checkwx.com/weather/EKRN
   © Info
CSS/SVG/PHP scripts were developed by weather34.com for use in the weather34 template © 2015-2019

Guide Info provided by Metar-Wikipedia